sensor_id;sensor_type;location;lat;lon;timestamp;P1;durP1;ratioP1;P2;durP2;ratioP2
22191;SDS011;11261;52.456;10.850;2023-06-19T00:01:23;7.15;;;5.47;;
22191;SDS011;11261;52.456;10.850;2023-06-19T00:03:51;8.13;;;5.43;;
22191;SDS011;11261;52.456;10.850;2023-06-19T00:06:20;5.82;;;5.20;;
22191;SDS011;11261;52.456;10.850;2023-06-19T00:08:48;9.85;;;5.43;;
22191;SDS011;11261;52.456;10.850;2023-06-19T00:11:16;5.80;;;4.47;;
22191;SDS011;11261;52.456;10.850;2023-06-19T00:13:44;7.18;;;5.07;;
22191;SDS011;11261;52.456;10.850;2023-06-19T00:16:14;6.18;;;5.18;;
22191;SDS011;11261;52.456;10.850;2023-06-19T00:18:42;6.45;;;4.80;;
22191;SDS011;11261;52.456;10.850;2023-06-19T00:21:10;5.57;;;5.00;;
22191;SDS011;11261;52.456;10.850;2023-06-19T00:23:39;6.07;;;4.75;;
22191;SDS011;11261;52.456;10.850;2023-06-19T00:26:07;5.78;;;5.18;;
22191;SDS011;11261;52.456;10.850;2023-06-19T00:28:37;5.43;;;4.70;;
22191;SDS011;11261;52.456;10.850;2023-06-19T00:31:10;6.65;;;4.95;;
22191;SDS011;11261;52.456;10.850;2023-06-19T00:33:41;5.78;;;5.03;;
22191;SDS011;11261;52.456;10.850;2023-06-19T00:36:09;6.68;;;4.53;;
22191;SDS011;11261;52.456;10.850;2023-06-19T00:38:38;6.90;;;5.20;;
22191;SDS011;11261;52.456;10.850;2023-06-19T00:41:06;8.82;;;5.00;;
22191;SDS011;11261;52.456;10.850;2023-06-19T00:43:35;5.85;;;4.97;;
22191;SDS011;11261;52.456;10.850;2023-06-19T00:46:04;7.53;;;5.75;;
22191;SDS011;11261;52.456;10.850;2023-06-19T00:48:33;7.40;;;5.25;;
22191;SDS011;11261;52.456;10.850;2023-06-19T00:51:03;7.32;;;5.15;;
22191;SDS011;11261;52.456;10.850;2023-06-19T00:53:32;6.57;;;4.90;;
22191;SDS011;11261;52.456;10.850;2023-06-19T00:56:01;7.93;;;5.22;;
22191;SDS011;11261;52.456;10.850;2023-06-19T00:58:31;6.88;;;4.85;;
22191;SDS011;11261;52.456;10.850;2023-06-19T01:00:59;6.65;;;4.93;;
22191;SDS011;11261;52.456;10.850;2023-06-19T01:03:34;7.40;;;5.32;;
22191;SDS011;11261;52.456;10.850;2023-06-19T01:06:05;5.45;;;4.75;;
22191;SDS011;11261;52.456;10.850;2023-06-19T01:08:41;6.45;;;5.00;;
22191;SDS011;11261;52.456;10.850;2023-06-19T01:11:22;7.22;;;5.18;;
22191;SDS011;11261;52.456;10.850;2023-06-19T01:13:56;6.88;;;5.18;;
22191;SDS011;11261;52.456;10.850;2023-06-19T01:16:28;6.60;;;4.97;;
22191;SDS011;11261;52.456;10.850;2023-06-19T01:18:56;7.28;;;5.22;;
22191;SDS011;11261;52.456;10.850;2023-06-19T01:21:27;6.32;;;4.85;;
22191;SDS011;11261;52.456;10.850;2023-06-19T01:23:57;5.75;;;5.15;;
22191;SDS011;11261;52.456;10.850;2023-06-19T01:26:25;7.53;;;5.47;;
22191;SDS011;11261;52.456;10.850;2023-06-19T01:28:54;6.22;;;5.35;;
22191;SDS011;11261;52.456;10.850;2023-06-19T01:31:24;6.22;;;5.43;;
22191;SDS011;11261;52.456;10.850;2023-06-19T01:33:57;7.72;;;5.35;;
22191;SDS011;11261;52.456;10.850;2023-06-19T01:36:28;7.90;;;5.05;;
22191;SDS011;11261;52.456;10.850;2023-06-19T01:38:59;6.05;;;4.78;;
22191;SDS011;11261;52.456;10.850;2023-06-19T01:41:28;6.13;;;5.00;;
22191;SDS011;11261;52.456;10.850;2023-06-19T01:43:57;5.00;;;4.40;;
22191;SDS011;11261;52.456;10.850;2023-06-19T01:46:27;6.38;;;4.88;;
22191;SDS011;11261;52.456;10.850;2023-06-19T01:48:55;6.75;;;5.00;;
22191;SDS011;11261;52.456;10.850;2023-06-19T01:51:23;6.38;;;4.90;;
22191;SDS011;11261;52.456;10.850;2023-06-19T01:53:52;5.88;;;4.70;;
22191;SDS011;11261;52.456;10.850;2023-06-19T01:56:21;7.75;;;5.30;;
22191;SDS011;11261;52.456;10.850;2023-06-19T01:58:50;6.88;;;4.97;;
22191;SDS011;11261;52.456;10.850;2023-06-19T02:01:19;7.82;;;5.70;;
22191;SDS011;11261;52.456;10.850;2023-06-19T02:03:47;9.15;;;5.38;;
22191;SDS011;11261;52.456;10.850;2023-06-19T02:06:16;7.22;;;5.03;;
22191;SDS011;11261;52.456;10.850;2023-06-19T02:08:44;7.43;;;6.22;;
22191;SDS011;11261;52.456;10.850;2023-06-19T02:11:12;7.75;;;5.30;;
22191;SDS011;11261;52.456;10.850;2023-06-19T02:13:42;6.30;;;5.00;;
22191;SDS011;11261;52.456;10.850;2023-06-19T02:16:10;6.63;;;5.30;;
22191;SDS011;11261;52.456;10.850;2023-06-19T02:18:39;9.02;;;5.13;;
22191;SDS011;11261;52.456;10.850;2023-06-19T02:21:08;6.53;;;5.07;;
22191;SDS011;11261;52.456;10.850;2023-06-19T02:23:36;8.13;;;5.80;;
22191;SDS011;11261;52.456;10.850;2023-06-19T02:26:04;6.13;;;5.20;;
22191;SDS011;11261;52.456;10.850;2023-06-19T02:28:32;5.93;;;4.82;;
22191;SDS011;11261;52.456;10.850;2023-06-19T02:31:02;6.15;;;5.55;;
22191;SDS011;11261;52.456;10.850;2023-06-19T02:33:31;6.93;;;5.65;;
22191;SDS011;11261;52.456;10.850;2023-06-19T02:35:59;6.75;;;5.07;;
22191;SDS011;11261;52.456;10.850;2023-06-19T02:38:28;5.90;;;5.25;;
22191;SDS011;11261;52.456;10.850;2023-06-19T02:40:57;6.93;;;5.30;;
22191;SDS011;11261;52.456;10.850;2023-06-19T02:43:27;6.68;;;5.13;;
22191;SDS011;11261;52.456;10.850;2023-06-19T02:45:56;6.97;;;5.60;;
22191;SDS011;11261;52.456;10.850;2023-06-19T02:48:26;7.10;;;5.57;;
22191;SDS011;11261;52.456;10.850;2023-06-19T02:50:55;7.45;;;5.20;;
22191;SDS011;11261;52.456;10.850;2023-06-19T02:53:23;6.75;;;5.57;;
22191;SDS011;11261;52.456;10.850;2023-06-19T02:55:52;7.90;;;5.60;;
22191;SDS011;11261;52.456;10.850;2023-06-19T02:58:20;6.15;;;5.30;;
22191;SDS011;11261;52.456;10.850;2023-06-19T03:00:48;8.82;;;5.32;;
22191;SDS011;11261;52.456;10.850;2023-06-19T03:03:17;7.28;;;5.15;;
22191;SDS011;11261;52.456;10.850;2023-06-19T03:05:47;8.13;;;5.72;;
22191;SDS011;11261;52.456;10.850;2023-06-19T03:08:15;6.35;;;4.68;;
22191;SDS011;11261;52.456;10.850;2023-06-19T03:10:43;7.20;;;5.35;;
22191;SDS011;11261;52.456;10.850;2023-06-19T03:13:12;7.10;;;5.95;;
22191;SDS011;11261;52.456;10.850;2023-06-19T03:15:40;7.97;;;5.60;;
22191;SDS011;11261;52.456;10.850;2023-06-19T03:18:09;6.18;;;5.53;;
22191;SDS011;11261;52.456;10.850;2023-06-19T03:20:37;7.50;;;5.70;;
22191;SDS011;11261;52.456;10.850;2023-06-19T03:23:07;7.00;;;5.45;;
22191;SDS011;11261;52.456;10.850;2023-06-19T03:25:35;6.72;;;6.05;;
22191;SDS011;11261;52.456;10.850;2023-06-19T03:28:04;6.47;;;5.15;;
22191;SDS011;11261;52.456;10.850;2023-06-19T03:30:32;7.35;;;5.20;;
22191;SDS011;11261;52.456;10.850;2023-06-19T03:33:00;6.68;;;5.70;;
22191;SDS011;11261;52.456;10.850;2023-06-19T03:35:29;7.25;;;5.65;;
22191;SDS011;11261;52.456;10.850;2023-06-19T03:37:57;7.30;;;5.40;;
22191;SDS011;11261;52.456;10.850;2023-06-19T03:40:27;7.90;;;5.05;;
22191;SDS011;11261;52.456;10.850;2023-06-19T03:42:57;8.00;;;5.57;;
22191;SDS011;11261;52.456;10.850;2023-06-19T03:45:26;7.90;;;6.00;;
22191;SDS011;11261;52.456;10.850;2023-06-19T03:47:54;7.28;;;5.57;;
22191;SDS011;11261;52.456;10.850;2023-06-19T03:50:22;7.82;;;5.50;;
22191;SDS011;11261;52.456;10.850;2023-06-19T03:52:52;7.90;;;5.40;;
22191;SDS011;11261;52.456;10.850;2023-06-19T03:55:21;6.78;;;5.50;;
22191;SDS011;11261;52.456;10.850;2023-06-19T03:57:50;8.65;;;5.53;;
22191;SDS011;11261;52.456;10.850;2023-06-19T04:00:19;6.38;;;5.28;;
22191;SDS011;11261;52.456;10.850;2023-06-19T04:02:48;7.70;;;5.68;;
22191;SDS011;11261;52.456;10.850;2023-06-19T04:05:17;7.35;;;5.28;;
22191;SDS011;11261;52.456;10.850;2023-06-19T04:07:46;5.78;;;5.18;;
22191;SDS011;11261;52.456;10.850;2023-06-19T04:10:15;6.15;;;5.38;;
22191;SDS011;11261;52.456;10.850;2023-06-19T04:12:43;6.68;;;5.40;;
22191;SDS011;11261;52.456;10.850;2023-06-19T04:15:13;7.63;;;5.30;;
22191;SDS011;11261;52.456;10.850;2023-06-19T04:17:42;6.97;;;5.22;;
22191;SDS011;11261;52.456;10.850;2023-06-19T04:20:10;5.55;;;4.47;;
22191;SDS011;11261;52.456;10.850;2023-06-19T04:22:39;5.80;;;4.78;;
22191;SDS011;11261;52.456;10.850;2023-06-19T04:25:09;5.47;;;4.90;;
22191;SDS011;11261;52.456;10.850;2023-06-19T04:27:37;5.22;;;4.72;;
22191;SDS011;11261;52.456;10.850;2023-06-19T04:30:06;7.43;;;5.47;;
22191;SDS011;11261;52.456;10.850;2023-06-19T04:32:36;7.18;;;5.45;;
22191;SDS011;11261;52.456;10.850;2023-06-19T04:35:08;7.68;;;4.97;;
22191;SDS011;11261;52.456;10.850;2023-06-19T04:37:37;7.85;;;5.32;;
22191;SDS011;11261;52.456;10.850;2023-06-19T04:40:05;6.53;;;5.35;;
22191;SDS011;11261;52.456;10.850;2023-06-19T04:42:35;5.57;;;4.78;;
22191;SDS011;11261;52.456;10.850;2023-06-19T04:45:05;8.70;;;5.50;;
22191;SDS011;11261;52.456;10.850;2023-06-19T04:47:37;6.38;;;5.15;;
22191;SDS011;11261;52.456;10.850;2023-06-19T04:50:18;6.10;;;4.97;;
22191;SDS011;11261;52.456;10.850;2023-06-19T04:52:48;6.50;;;4.90;;
22191;SDS011;11261;52.456;10.850;2023-06-19T04:55:18;8.57;;;5.13;;
22191;SDS011;11261;52.456;10.850;2023-06-19T04:57:46;6.95;;;5.40;;
22191;SDS011;11261;52.456;10.850;2023-06-19T05:00:15;8.13;;;5.78;;
22191;SDS011;11261;52.456;10.850;2023-06-19T05:02:47;6.47;;;4.90;;
22191;SDS011;11261;52.456;10.850;2023-06-19T05:05:15;6.72;;;5.55;;
22191;SDS011;11261;52.456;10.850;2023-06-19T05:07:48;8.32;;;4.90;;
22191;SDS011;11261;52.456;10.850;2023-06-19T05:10:17;6.68;;;5.13;;
22191;SDS011;11261;52.456;10.850;2023-06-19T05:12:45;5.55;;;4.53;;
22191;SDS011;11261;52.456;10.850;2023-06-19T05:15:13;5.90;;;5.10;;
22191;SDS011;11261;52.456;10.850;2023-06-19T05:17:41;8.35;;;5.45;;
22191;SDS011;11261;52.456;10.850;2023-06-19T05:20:14;6.75;;;5.25;;
22191;SDS011;11261;52.456;10.850;2023-06-19T05:22:43;5.85;;;5.25;;
22191;SDS011;11261;52.456;10.850;2023-06-19T05:25:11;8.40;;;6.18;;
22191;SDS011;11261;52.456;10.850;2023-06-19T05:27:40;9.43;;;5.82;;
22191;SDS011;11261;52.456;10.850;2023-06-19T05:30:08;7.82;;;5.50;;
22191;SDS011;11261;52.456;10.850;2023-06-19T05:32:37;6.75;;;5.80;;
22191;SDS011;11261;52.456;10.850;2023-06-19T05:35:06;7.55;;;5.78;;
22191;SDS011;11261;52.456;10.850;2023-06-19T05:37:36;8.70;;;6.28;;
22191;SDS011;11261;52.456;10.850;2023-06-19T05:40:06;10.15;;;6.15;;
22191;SDS011;11261;52.456;10.850;2023-06-19T05:42:36;9.18;;;5.97;;
22191;SDS011;11261;52.456;10.850;2023-06-19T05:45:04;8.10;;;6.07;;
22191;SDS011;11261;52.456;10.850;2023-06-19T05:47:33;7.43;;;6.00;;
22191;SDS011;11261;52.456;10.850;2023-06-19T05:50:02;7.53;;;5.65;;
22191;SDS011;11261;52.456;10.850;2023-06-19T05:52:30;7.30;;;6.05;;
22191;SDS011;11261;52.456;10.850;2023-06-19T05:55:00;6.60;;;5.90;;
22191;SDS011;11261;52.456;10.850;2023-06-19T05:57:28;7.75;;;6.15;;
22191;SDS011;11261;52.456;10.850;2023-06-19T05:59:57;7.80;;;6.25;;
22191;SDS011;11261;52.456;10.850;2023-06-19T06:02:25;8.05;;;6.22;;
22191;SDS011;11261;52.456;10.850;2023-06-19T06:04:55;8.88;;;6.20;;
22191;SDS011;11261;52.456;10.850;2023-06-19T06:07:23;8.80;;;6.10;;
22191;SDS011;11261;52.456;10.850;2023-06-19T06:09:54;7.05;;;5.90;;
22191;SDS011;11261;52.456;10.850;2023-06-19T06:12:23;8.55;;;6.20;;
22191;SDS011;11261;52.456;10.850;2023-06-19T06:14:52;6.55;;;5.78;;
22191;SDS011;11261;52.456;10.850;2023-06-19T06:17:20;8.43;;;6.03;;
22191;SDS011;11261;52.456;10.850;2023-06-19T06:19:49;6.25;;;5.65;;
22191;SDS011;11261;52.456;10.850;2023-06-19T06:22:17;6.63;;;5.18;;
22191;SDS011;11261;52.456;10.850;2023-06-19T06:24:45;6.65;;;5.53;;
22191;SDS011;11261;52.456;10.850;2023-06-19T06:27:14;7.07;;;5.70;;
22191;SDS011;11261;52.456;10.850;2023-06-19T06:29:44;6.88;;;5.57;;
22191;SDS011;11261;52.456;10.850;2023-06-19T06:32:12;7.90;;;5.75;;
22191;SDS011;11261;52.456;10.850;2023-06-19T06:34:40;9.63;;;6.10;;
22191;SDS011;11261;52.456;10.850;2023-06-19T06:37:09;7.20;;;5.78;;
22191;SDS011;11261;52.456;10.850;2023-06-19T06:39:37;7.82;;;5.85;;
22191;SDS011;11261;52.456;10.850;2023-06-19T06:42:06;6.78;;;5.60;;
22191;SDS011;11261;52.456;10.850;2023-06-19T06:44:34;9.48;;;6.03;;
22191;SDS011;11261;52.456;10.850;2023-06-19T06:47:04;7.22;;;5.90;;
22191;SDS011;11261;52.456;10.850;2023-06-19T06:49:32;7.28;;;6.18;;
22191;SDS011;11261;52.456;10.850;2023-06-19T06:52:03;6.43;;;5.07;;
22191;SDS011;11261;52.456;10.850;2023-06-19T06:54:31;10.40;;;5.93;;
22191;SDS011;11261;52.456;10.850;2023-06-19T06:56:59;7.35;;;5.88;;
22191;SDS011;11261;52.456;10.850;2023-06-19T06:59:28;6.63;;;5.70;;
22191;SDS011;11261;52.456;10.850;2023-06-19T07:01:56;7.72;;;6.15;;
22191;SDS011;11261;52.456;10.850;2023-06-19T07:04:25;6.97;;;5.65;;
22191;SDS011;11261;52.456;10.850;2023-06-19T07:06:54;7.72;;;6.13;;
22191;SDS011;11261;52.456;10.850;2023-06-19T07:09:22;8.80;;;6.20;;
22191;SDS011;11261;52.456;10.850;2023-06-19T07:11:50;10.55;;;6.32;;
22191;SDS011;11261;52.456;10.850;2023-06-19T07:14:19;10.40;;;6.70;;
22191;SDS011;11261;52.456;10.850;2023-06-19T07:16:48;10.52;;;6.65;;
22191;SDS011;11261;52.456;10.850;2023-06-19T07:19:16;8.25;;;6.72;;
22191;SDS011;11261;52.456;10.850;2023-06-19T07:21:47;7.10;;;6.22;;
22191;SDS011;11261;52.456;10.850;2023-06-19T07:24:17;8.85;;;6.47;;
22191;SDS011;11261;52.456;10.850;2023-06-19T07:27:02;8.55;;;6.53;;
22191;SDS011;11261;52.456;10.850;2023-06-19T07:29:31;7.50;;;6.43;;
22191;SDS011;11261;52.456;10.850;2023-06-19T07:31:59;8.88;;;6.35;;
22191;SDS011;11261;52.456;10.850;2023-06-19T07:34:30;8.25;;;6.47;;
22191;SDS011;11261;52.456;10.850;2023-06-19T07:37:00;12.55;;;7.25;;
22191;SDS011;11261;52.456;10.850;2023-06-19T07:39:28;7.75;;;6.35;;
22191;SDS011;11261;52.456;10.850;2023-06-19T07:41:57;9.05;;;6.70;;
22191;SDS011;11261;52.456;10.850;2023-06-19T07:44:25;8.00;;;6.45;;
22191;SDS011;11261;52.456;10.850;2023-06-19T07:46:54;8.93;;;6.70;;
22191;SDS011;11261;52.456;10.850;2023-06-19T07:49:22;7.72;;;6.93;;
22191;SDS011;11261;52.456;10.850;2023-06-19T07:51:51;9.45;;;6.68;;
22191;SDS011;11261;52.456;10.850;2023-06-19T07:54:20;9.20;;;6.90;;
22191;SDS011;11261;52.456;10.850;2023-06-19T07:56:48;10.05;;;7.05;;
22191;SDS011;11261;52.456;10.850;2023-06-19T07:59:17;8.68;;;7.10;;
22191;SDS011;11261;52.456;10.850;2023-06-19T08:01:45;10.63;;;6.78;;
22191;SDS011;11261;52.456;10.850;2023-06-19T08:04:14;9.70;;;6.35;;
22191;SDS011;11261;52.456;10.850;2023-06-19T08:06:42;8.82;;;5.88;;
22191;SDS011;11261;52.456;10.850;2023-06-19T08:09:10;12.13;;;6.30;;
22191;SDS011;11261;52.456;10.850;2023-06-19T08:11:40;7.88;;;5.70;;
22191;SDS011;11261;52.456;10.850;2023-06-19T08:14:08;8.88;;;5.70;;
22191;SDS011;11261;52.456;10.850;2023-06-19T08:16:36;6.28;;;5.43;;
22191;SDS011;11261;52.456;10.850;2023-06-19T08:19:04;8.88;;;5.70;;
22191;SDS011;11261;52.456;10.850;2023-06-19T08:21:32;9.30;;;5.63;;
22191;SDS011;11261;52.456;10.850;2023-06-19T08:24:01;6.57;;;5.72;;
22191;SDS011;11261;52.456;10.850;2023-06-19T08:26:29;7.35;;;5.78;;
22191;SDS011;11261;52.456;10.850;2023-06-19T08:28:58;7.13;;;5.65;;
22191;SDS011;11261;52.456;10.850;2023-06-19T08:31:27;6.30;;;5.68;;
22191;SDS011;11261;52.456;10.850;2023-06-19T08:33:55;8.05;;;6.10;;
22191;SDS011;11261;52.456;10.850;2023-06-19T08:36:24;7.60;;;5.45;;
22191;SDS011;11261;52.456;10.850;2023-06-19T08:38:52;6.28;;;5.55;;
22191;SDS011;11261;52.456;10.850;2023-06-19T08:41:20;6.57;;;5.10;;
22191;SDS011;11261;52.456;10.850;2023-06-19T08:43:50;7.53;;;5.85;;
22191;SDS011;11261;52.456;10.850;2023-06-19T08:46:20;11.00;;;6.30;;
22191;SDS011;11261;52.456;10.850;2023-06-19T08:48:49;7.90;;;5.53;;
22191;SDS011;11261;52.456;10.850;2023-06-19T08:51:17;9.02;;;5.72;;
22191;SDS011;11261;52.456;10.850;2023-06-19T08:53:46;6.22;;;5.18;;
22191;SDS011;11261;52.456;10.850;2023-06-19T08:56:17;7.10;;;5.40;;
22191;SDS011;11261;52.456;10.850;2023-06-19T08:58:45;7.70;;;4.85;;
22191;SDS011;11261;52.456;10.850;2023-06-19T09:01:16;6.97;;;5.28;;
22191;SDS011;11261;52.456;10.850;2023-06-19T09:03:47;7.13;;;5.97;;
22191;SDS011;11261;52.456;10.850;2023-06-19T09:06:19;6.82;;;5.65;;
22191;SDS011;11261;52.456;10.850;2023-06-19T09:08:57;6.50;;;5.75;;
22191;SDS011;11261;52.456;10.850;2023-06-19T09:11:26;7.00;;;5.55;;
22191;SDS011;11261;52.456;10.850;2023-06-19T09:13:56;7.15;;;5.30;;
22191;SDS011;11261;52.456;10.850;2023-06-19T09:16:26;6.50;;;5.10;;
22191;SDS011;11261;52.456;10.850;2023-06-19T09:19:06;6.72;;;5.60;;
22191;SDS011;11261;52.456;10.850;2023-06-19T09:21:35;6.95;;;5.05;;
22191;SDS011;11261;52.456;10.850;2023-06-19T09:24:05;9.27;;;5.90;;
22191;SDS011;11261;52.456;10.850;2023-06-19T09:26:35;6.80;;;5.35;;
22191;SDS011;11261;52.456;10.850;2023-06-19T09:29:10;8.90;;;5.38;;
22191;SDS011;11261;52.456;10.850;2023-06-19T09:31:42;8.40;;;5.18;;
22191;SDS011;11261;52.456;10.850;2023-06-19T09:34:12;7.47;;;5.57;;
22191;SDS011;11261;52.456;10.850;2023-06-19T09:36:40;8.68;;;5.53;;
22191;SDS011;11261;52.456;10.850;2023-06-19T09:39:09;5.72;;;4.97;;
22191;SDS011;11261;52.456;10.850;2023-06-19T09:41:38;5.97;;;4.80;;
22191;SDS011;11261;52.456;10.850;2023-06-19T09:44:08;6.95;;;5.20;;
22191;SDS011;11261;52.456;10.850;2023-06-19T09:46:41;7.32;;;5.45;;
22191;SDS011;11261;52.456;10.850;2023-06-19T09:49:16;6.13;;;5.53;;
22191;SDS011;11261;52.456;10.850;2023-06-19T09:51:46;7.22;;;5.40;;
22191;SDS011;11261;52.456;10.850;2023-06-19T09:54:17;6.72;;;5.68;;
22191;SDS011;11261;52.456;10.850;2023-06-19T09:56:47;6.20;;;4.82;;
22191;SDS011;11261;52.456;10.850;2023-06-19T09:59:18;5.28;;;4.78;;
22191;SDS011;11261;52.456;10.850;2023-06-19T10:01:47;6.10;;;5.32;;
22191;SDS011;11261;52.456;10.850;2023-06-19T10:04:18;6.40;;;5.32;;
22191;SDS011;11261;52.456;10.850;2023-06-19T10:06:47;6.35;;;4.65;;
22191;SDS011;11261;52.456;10.850;2023-06-19T10:09:16;6.43;;;4.97;;
22191;SDS011;11261;52.456;10.850;2023-06-19T10:11:46;5.65;;;4.70;;
22191;SDS011;11261;52.456;10.850;2023-06-19T10:14:17;5.90;;;4.45;;
22191;SDS011;11261;52.456;10.850;2023-06-19T10:16:46;4.20;;;3.83;;
22191;SDS011;11261;52.456;10.850;2023-06-19T10:19:14;4.63;;;4.20;;
22191;SDS011;11261;52.456;10.850;2023-06-19T10:21:47;4.43;;;3.97;;
22191;SDS011;11261;52.456;10.850;2023-06-19T10:24:17;5.32;;;3.72;;
22191;SDS011;11261;52.456;10.850;2023-06-19T10:26:58;5.10;;;4.38;;
22191;SDS011;11261;52.456;10.850;2023-06-19T10:29:37;5.10;;;4.30;;
22191;SDS011;11261;52.456;10.850;2023-06-19T10:32:09;5.22;;;4.28;;
22191;SDS011;11261;52.456;10.850;2023-06-19T10:34:37;4.40;;;4.00;;
22191;SDS011;11261;52.456;10.850;2023-06-19T10:37:06;5.00;;;4.22;;
22191;SDS011;11261;52.456;10.850;2023-06-19T10:39:35;6.78;;;4.50;;
22191;SDS011;11261;52.456;10.850;2023-06-19T10:42:05;6.30;;;4.82;;
22191;SDS011;11261;52.456;10.850;2023-06-19T10:44:34;4.85;;;4.20;;
22191;SDS011;11261;52.456;10.850;2023-06-19T10:47:04;4.15;;;3.55;;
22191;SDS011;11261;52.456;10.850;2023-06-19T10:49:33;4.40;;;4.00;;
22191;SDS011;11261;52.456;10.850;2023-06-19T10:52:02;4.80;;;4.30;;
22191;SDS011;11261;52.456;10.850;2023-06-19T10:54:32;4.53;;;4.10;;
22191;SDS011;11261;52.456;10.850;2023-06-19T10:57:03;4.50;;;3.67;;
22191;SDS011;11261;52.456;10.850;2023-06-19T10:59:33;7.50;;;4.10;;
22191;SDS011;11261;52.456;10.850;2023-06-19T11:02:01;4.40;;;3.90;;
22191;SDS011;11261;52.456;10.850;2023-06-19T11:04:32;5.63;;;4.20;;
22191;SDS011;11261;52.456;10.850;2023-06-19T11:07:05;4.95;;;4.45;;
22191;SDS011;11261;52.456;10.850;2023-06-19T11:09:36;5.50;;;5.00;;
22191;SDS011;11261;52.456;10.850;2023-06-19T11:12:05;5.40;;;4.90;;
22191;SDS011;11261;52.456;10.850;2023-06-19T11:14:35;6.40;;;4.68;;
22191;SDS011;11261;52.456;10.850;2023-06-19T11:17:06;5.70;;;4.97;;
22191;SDS011;11261;52.456;10.850;2023-06-19T11:19:35;5.75;;;4.93;;
22191;SDS011;11261;52.456;10.850;2023-06-19T11:22:05;5.95;;;4.50;;
22191;SDS011;11261;52.456;10.850;2023-06-19T11:24:35;8.98;;;5.38;;
22191;SDS011;11261;52.456;10.850;2023-06-19T11:27:04;7.03;;;5.15;;
22191;SDS011;11261;52.456;10.850;2023-06-19T11:29:37;5.47;;;4.90;;
22191;SDS011;11261;52.456;10.850;2023-06-19T11:32:06;7.25;;;4.93;;
22191;SDS011;11261;52.456;10.850;2023-06-19T11:34:35;5.15;;;4.65;;
22191;SDS011;11261;52.456;10.850;2023-06-19T11:37:11;5.25;;;4.75;;
22191;SDS011;11261;52.456;10.850;2023-06-19T11:39:42;5.53;;;5.03;;
22191;SDS011;11261;52.456;10.850;2023-06-19T11:42:11;6.30;;;4.85;;
22191;SDS011;11261;52.456;10.850;2023-06-19T11:44:52;5.47;;;4.97;;
22191;SDS011;11261;52.456;10.850;2023-06-19T11:47:21;5.07;;;4.60;;
22191;SDS011;11261;52.456;10.850;2023-06-19T11:49:50;5.55;;;4.68;;
22191;SDS011;11261;52.456;10.850;2023-06-19T11:52:18;5.97;;;5.18;;
22191;SDS011;11261;52.456;10.850;2023-06-19T11:54:48;6.57;;;4.57;;
22191;SDS011;11261;52.456;10.850;2023-06-19T11:57:16;6.10;;;4.85;;
22191;SDS011;11261;52.456;10.850;2023-06-19T11:59:44;5.97;;;5.20;;
22191;SDS011;11261;52.456;10.850;2023-06-19T12:02:13;5.63;;;4.78;;
22191;SDS011;11261;52.456;10.850;2023-06-19T12:04:41;6.50;;;4.93;;
22191;SDS011;11261;52.456;10.850;2023-06-19T12:07:10;5.00;;;4.53;;
22191;SDS011;11261;52.456;10.850;2023-06-19T12:09:39;4.55;;;4.15;;
22191;SDS011;11261;52.456;10.850;2023-06-19T12:12:09;5.30;;;4.45;;
22191;SDS011;11261;52.456;10.850;2023-06-19T12:14:38;5.53;;;4.70;;
22191;SDS011;11261;52.456;10.850;2023-06-19T12:17:06;5.47;;;4.32;;
22191;SDS011;11261;52.456;10.850;2023-06-19T12:19:35;4.45;;;4.05;;
22191;SDS011;11261;52.456;10.850;2023-06-19T12:22:03;6.22;;;4.32;;
22191;SDS011;11261;52.456;10.850;2023-06-19T12:24:32;5.28;;;4.78;;
22191;SDS011;11261;52.456;10.850;2023-06-19T12:27:00;5.30;;;4.28;;
22191;SDS011;11261;52.456;10.850;2023-06-19T12:29:30;7.38;;;4.93;;
22191;SDS011;11261;52.456;10.850;2023-06-19T12:31:59;4.88;;;4.43;;
22191;SDS011;11261;52.456;10.850;2023-06-19T12:34:29;5.82;;;4.47;;
22191;SDS011;11261;52.456;10.850;2023-06-19T12:36:57;7.07;;;4.30;;
22191;SDS011;11261;52.456;10.850;2023-06-19T12:39:26;5.00;;;4.50;;
22191;SDS011;11261;52.456;10.850;2023-06-19T12:41:54;4.80;;;4.28;;
22191;SDS011;11261;52.456;10.850;2023-06-19T12:44:23;6.75;;;4.35;;
22191;SDS011;11261;52.456;10.850;2023-06-19T12:46:53;5.68;;;4.78;;
22191;SDS011;11261;52.456;10.850;2023-06-19T12:49:21;5.40;;;4.50;;
22191;SDS011;11261;52.456;10.850;2023-06-19T12:51:50;7.25;;;4.28;;
22191;SDS011;11261;52.456;10.850;2023-06-19T12:54:18;5.47;;;4.60;;
22191;SDS011;11261;52.456;10.850;2023-06-19T12:56:47;4.95;;;4.47;;
22191;SDS011;11261;52.456;10.850;2023-06-19T12:59:15;6.35;;;4.90;;
22191;SDS011;11261;52.456;10.850;2023-06-19T13:01:44;4.65;;;4.15;;
22191;SDS011;11261;52.456;10.850;2023-06-19T13:04:14;8.52;;;5.25;;
22191;SDS011;11261;52.456;10.850;2023-06-19T13:06:42;8.77;;;4.55;;
22191;SDS011;11261;52.456;10.850;2023-06-19T13:09:11;5.53;;;4.40;;
22191;SDS011;11261;52.456;10.850;2023-06-19T13:11:39;4.93;;;3.90;;
22191;SDS011;11261;52.456;10.850;2023-06-19T13:14:08;5.05;;;3.90;;
22191;SDS011;11261;52.456;10.850;2023-06-19T13:16:36;5.65;;;4.05;;
22191;SDS011;11261;52.456;10.850;2023-06-19T13:19:07;4.30;;;3.90;;
22191;SDS011;11261;52.456;10.850;2023-06-19T13:21:37;5.35;;;4.28;;
22191;SDS011;11261;52.456;10.850;2023-06-19T13:24:05;4.35;;;3.90;;
22191;SDS011;11261;52.456;10.850;2023-06-19T13:26:33;5.15;;;3.58;;
22191;SDS011;11261;52.456;10.850;2023-06-19T13:29:02;6.25;;;3.30;;
22191;SDS011;11261;52.456;10.850;2023-06-19T13:31:30;4.40;;;3.28;;
22191;SDS011;11261;52.456;10.850;2023-06-19T13:33:58;3.42;;;3.13;;
22191;SDS011;11261;52.456;10.850;2023-06-19T13:36:27;4.93;;;3.13;;
22191;SDS011;11261;52.456;10.850;2023-06-19T13:38:56;3.72;;;3.10;;
22191;SDS011;11261;52.456;10.850;2023-06-19T13:41:25;3.75;;;3.40;;
22191;SDS011;11261;52.456;10.850;2023-06-19T13:43:53;4.50;;;3.63;;
22191;SDS011;11261;52.456;10.850;2023-06-19T13:46:22;4.85;;;3.05;;
22191;SDS011;11261;52.456;10.850;2023-06-19T13:48:50;4.75;;;3.90;;
22191;SDS011;11261;52.456;10.850;2023-06-19T13:51:19;3.90;;;3.42;;
22191;SDS011;11261;52.456;10.850;2023-06-19T13:53:48;4.00;;;3.60;;
22191;SDS011;11261;52.456;10.850;2023-06-19T13:56:20;5.13;;;3.25;;
22191;SDS011;11261;52.456;10.850;2023-06-19T13:58:50;4.82;;;3.55;;
22191;SDS011;11261;52.456;10.850;2023-06-19T14:01:18;5.30;;;3.22;;
22191;SDS011;11261;52.456;10.850;2023-06-19T14:03:47;8.95;;;3.70;;
22191;SDS011;11261;52.456;10.850;2023-06-19T14:06:15;6.47;;;3.40;;
22191;SDS011;11261;52.456;10.850;2023-06-19T14:08:44;3.53;;;3.22;;
22191;SDS011;11261;52.456;10.850;2023-06-19T14:11:12;4.10;;;3.40;;
22191;SDS011;11261;52.456;10.850;2023-06-19T14:13:42;3.97;;;3.00;;
22191;SDS011;11261;52.456;10.850;2023-06-19T14:16:10;3.53;;;3.22;;
22191;SDS011;11261;52.456;10.850;2023-06-19T14:18:38;3.70;;;3.35;;
22191;SDS011;11261;52.456;10.850;2023-06-19T14:21:07;5.63;;;3.20;;
22191;SDS011;11261;52.456;10.850;2023-06-19T14:23:35;3.47;;;3.13;;
22191;SDS011;11261;52.456;10.850;2023-06-19T14:26:09;3.33;;;2.80;;
22191;SDS011;11261;52.456;10.850;2023-06-19T14:28:38;3.60;;;2.80;;
22191;SDS011;11261;52.456;10.850;2023-06-19T14:31:08;3.05;;;2.78;;
22191;SDS011;11261;52.456;10.850;2023-06-19T14:33:36;3.25;;;2.92;;
22191;SDS011;11261;52.456;10.850;2023-06-19T14:36:04;4.13;;;3.20;;
22191;SDS011;11261;52.456;10.850;2023-06-19T14:38:33;3.33;;;3.03;;
22191;SDS011;11261;52.456;10.850;2023-06-19T14:41:01;4.90;;;3.30;;
22191;SDS011;11261;52.456;10.850;2023-06-19T14:43:30;3.40;;;2.92;;
22191;SDS011;11261;52.456;10.850;2023-06-19T14:45:59;3.20;;;2.90;;